Time;durP1;ratioP1;P1;durP2;ratioP2;P2;SDS_P1;SDS_P2;PMS_P1;PMS_P2;Temp;Humidity;BMP_temperature;BMP_pressure;BME280_temperature;BME280_humidity;BME280_pressure;Samples;Min_cycle;Max_cycle;Signal;HPM_P1;HPM_P2
2023/09/04 00:02:09;;;;;;;10.27;7.40;;;13.60;99.90;;;;;;6187256;23;20025;-93
2023/09/04 00:04:59;;;;;;;8.60;6.57;;;13.60;99.90;;;;;;6168218;23;20404;-93
2023/09/04 00:07:46;;;;;;;8.73;7.22;;;13.60;99.90;;;;;;6189563;23;20029;-90
2023/09/04 00:10:34;;;;;;;11.90;7.45;;;13.60;99.90;;;;;;6189844;23;20074;-93
2023/09/04 00:13:21;;;;;;;11.25;7.18;;;13.60;99.90;;;;;;6145421;23;20112;-93
2023/09/04 00:16:08;;;;;;;9.60;6.95;;;13.60;99.90;;;;;;6166787;23;20047;-92
2023/09/04 00:18:56;;;;;;;12.35;6.65;;;13.50;99.90;;;;;;6165670;23;20039;-93
2023/09/04 00:21:43;;;;;;;10.80;7.45;;;13.50;99.90;;;;;;6190541;23;20029;-93
2023/09/04 00:24:31;;;;;;;7.72;6.68;;;13.40;99.90;;;;;;6169630;23;20032;-92
2023/09/04 00:27:19;;;;;;;12.65;7.25;;;13.50;99.90;;;;;;6168123;23;20021;-92
2023/09/04 00:30:07;;;;;;;8.68;7.22;;;13.50;99.90;;;;;;6149399;23;20053;-93
2023/09/04 00:32:55;;;;;;;8.57;6.85;;;13.50;99.90;;;;;;6168549;23;20095;-92
2023/09/04 00:35:43;;;;;;;10.93;7.55;;;13.50;99.90;;;;;;6186979;23;20052;-94
2023/09/04 00:38:30;;;;;;;9.02;7.53;;;13.40;99.90;;;;;;6169310;23;20416;-91
2023/09/04 00:41:19;;;;;;;9.20;8.00;;;13.40;99.90;;;;;;6188140;23;20032;-92
2023/09/04 00:44:06;;;;;;;12.07;8.20;;;13.30;99.90;;;;;;6168270;23;20021;-94
2023/09/04 00:46:54;;;;;;;10.07;7.13;;;13.30;99.90;;;;;;6191716;23;20028;-93
2023/09/04 00:49:47;;;;;;;10.15;7.38;;;13.20;99.90;;;;;;6172396;23;20025;-93
2023/09/04 00:52:36;;;;;;;13.57;8.20;;;13.20;99.90;;;;;;6184920;23;20052;-89
2023/09/04 00:55:24;;;;;;;11.18;7.57;;;13.20;99.90;;;;;;6202418;23;20021;-92
2023/09/04 00:58:12;;;;;;;12.70;8.32;;;13.10;99.90;;;;;;6168810;23;20021;-91
2023/09/04 01:01:06;;;;;;;12.75;8.05;;;13.20;99.90;;;;;;6169161;23;20035;-91
2023/09/04 01:03:55;;;;;;;13.50;8.05;;;13.20;99.90;;;;;;6169381;23;20085;-93
2023/09/04 01:06:43;;;;;;;13.52;8.75;;;13.30;99.90;;;;;;6168999;23;20073;-93
2023/09/04 01:09:31;;;;;;;10.80;8.80;;;13.50;99.90;;;;;;6169995;23;20371;-91
2023/09/04 01:12:24;;;;;;;10.50;8.68;;;13.50;99.90;;;;;;6152431;23;20109;-93
2023/09/04 01:15:13;;;;;;;11.85;9.23;;;13.40;99.90;;;;;;6193258;23;20092;-93
2023/09/04 01:18:02;;;;;;;14.70;8.85;;;13.30;99.90;;;;;;6173516;23;20324;-92
2023/09/04 01:21:00;;;;;;;13.80;9.20;;;13.30;99.90;;;;;;6172634;23;20037;-91
2023/09/04 01:23:47;;;;;;;14.75;9.90;;;13.20;99.90;;;;;;6191526;23;20512;-91
2023/09/04 01:26:40;;;;;;;16.02;10.00;;;13.10;99.90;;;;;;6168748;23;20274;-90
2023/09/04 01:29:50;;;;;;;12.35;8.90;;;13.10;99.90;;;;;;6168434;23;20021;-92
2023/09/04 01:32:41;;;;;;;12.00;9.35;;;13.10;99.90;;;;;;6166775;23;20021;-93
2023/09/04 01:35:31;;;;;;;16.30;10.27;;;13.10;99.90;;;;;;6166761;23;20036;-93
2023/09/04 01:38:19;;;;;;;11.38;9.40;;;13.20;99.90;;;;;;6168140;23;20028;-92
2023/09/04 01:41:08;;;;;;;14.15;10.10;;;13.10;99.90;;;;;;6167892;23;20381;-92
2023/09/04 01:43:55;;;;;;;15.27;8.98;;;13.20;99.90;;;;;;6167805;23;20025;-93
2023/09/04 01:46:43;;;;;;;13.38;9.50;;;13.10;99.90;;;;;;6167986;23;20021;-93
2023/09/04 01:49:30;;;;;;;14.52;9.57;;;13.20;99.90;;;;;;6168318;23;20028;-92
2023/09/04 01:52:18;;;;;;;11.30;9.18;;;13.30;99.90;;;;;;6168216;23;20021;-92
2023/09/04 01:55:06;;;;;;;14.30;10.13;;;13.30;99.90;;;;;;6169345;23;20075;-91
2023/09/04 01:57:53;;;;;;;15.13;10.20;;;13.40;99.90;;;;;;6167888;23;20021;-91
2023/09/04 02:00:41;;;;;;;15.82;10.30;;;13.30;99.90;;;;;;6167808;23;20040;-91
2023/09/04 02:03:29;;;;;;;15.55;10.23;;;13.30;99.90;;;;;;6164879;23;20088;-92
2023/09/04 02:06:17;;;;;;;18.48;10.52;;;13.30;99.90;;;;;;6168791;23;20017;-93
2023/09/04 02:09:04;;;;;;;16.40;10.88;;;13.40;99.90;;;;;;6167540;23;20327;-90
2023/09/04 02:11:52;;;;;;;15.57;10.38;;;13.40;99.90;;;;;;6167862;23;20026;-92
2023/09/04 02:14:39;;;;;;;14.38;9.98;;;13.30;99.90;;;;;;6147600;23;20025;-91
2023/09/04 02:17:27;;;;;;;14.18;10.07;;;13.20;99.90;;;;;;6168729;23;20331;-92
2023/09/04 02:20:16;;;;;;;13.40;10.35;;;13.20;99.90;;;;;;6167563;23;20029;-93
2023/09/04 02:23:03;;;;;;;13.70;10.32;;;13.00;99.90;;;;;;6168013;23;20024;-91
2023/09/04 02:25:51;;;;;;;15.27;10.70;;;13.00;99.90;;;;;;6168578;23;20036;-91
2023/09/04 02:28:41;;;;;;;12.70;9.75;;;12.90;99.90;;;;;;6190484;23;20041;-93
2023/09/04 02:31:28;;;;;;;13.95;9.65;;;12.90;99.90;;;;;;6188807;23;20039;-93
2023/09/04 02:34:16;;;;;;;16.50;9.98;;;12.90;99.90;;;;;;6168335;23;20025;-94
2023/09/04 02:37:04;;;;;;;15.88;9.57;;;12.90;99.90;;;;;;6169377;23;20096;-93
2023/09/04 02:39:51;;;;;;;14.60;9.77;;;12.90;99.90;;;;;;6168300;23;20029;-92
2023/09/04 02:42:38;;;;;;;16.40;10.20;;;12.90;99.90;;;;;;6168351;23;20031;-94
2023/09/04 02:45:26;;;;;;;14.93;9.77;;;12.90;99.90;;;;;;6168734;23;20350;-91
2023/09/04 02:48:15;;;;;;;14.00;9.98;;;12.90;99.90;;;;;;6169810;23;20025;-92
2023/09/04 02:51:03;;;;;;;14.80;9.77;;;12.90;99.90;;;;;;6190344;23;20036;-94
2023/09/04 02:53:50;;;;;;;13.15;9.30;;;12.90;99.90;;;;;;6167683;23;20076;-91
2023/09/04 02:56:38;;;;;;;19.50;10.27;;;12.80;99.90;;;;;;6167400;23;20025;-91
2023/09/04 02:59:25;;;;;;;14.25;9.95;;;12.80;99.90;;;;;;6169545;23;20036;-91
2023/09/04 03:02:13;;;;;;;13.73;9.90;;;12.70;99.90;;;;;;6167971;23;20110;-92
2023/09/04 03:05:01;;;;;;;14.23;10.32;;;12.70;99.90;;;;;;6188592;23;20028;-92
2023/09/04 03:07:50;;;;;;;17.08;10.98;;;12.60;99.90;;;;;;6167563;23;20107;-93
2023/09/04 03:10:39;;;;;;;16.50;11.25;;;12.60;99.90;;;;;;6189229;23;20025;-93
2023/09/04 03:13:27;;;;;;;19.05;11.73;;;12.80;99.90;;;;;;6187944;23;20095;-91
2023/09/04 03:16:14;;;;;;;16.15;11.50;;;12.70;99.90;;;;;;6197282;23;20112;-92
2023/09/04 03:19:02;;;;;;;19.08;11.63;;;12.60;99.90;;;;;;6183994;23;20083;-92
2023/09/04 03:21:49;;;;;;;14.68;10.82;;;12.60;99.90;;;;;;6173583;23;20056;-91
2023/09/04 03:24:37;;;;;;;15.38;10.68;;;12.50;99.90;;;;;;6151887;23;20021;-92
2023/09/04 03:27:26;;;;;;;15.40;11.23;;;12.50;99.90;;;;;;6191079;23;20032;-93
2023/09/04 03:30:13;;;;;;;15.88;11.43;;;12.40;99.90;;;;;;6169396;23;20067;-92
2023/09/04 03:33:01;;;;;;;16.67;11.23;;;12.40;99.90;;;;;;6208811;23;20036;-94
2023/09/04 03:35:49;;;;;;;16.60;11.23;;;12.40;99.90;;;;;;6188700;23;20049;-93
2023/09/04 03:38:41;;;;;;;17.80;12.00;;;12.40;99.90;;;;;;6189353;23;20029;-93
2023/09/04 03:41:30;;;;;;;17.17;11.52;;;12.40;99.90;;;;;;6167516;23;20032;-92
2023/09/04 03:44:18;;;;;;;16.65;11.48;;;12.40;99.90;;;;;;6166934;23;20096;-94
2023/09/04 03:47:08;;;;;;;15.80;11.60;;;12.30;99.90;;;;;;6187441;23;20096;-92
2023/09/04 03:49:56;;;;;;;14.88;10.63;;;12.20;99.90;;;;;;6167882;23;20416;-92
2023/09/04 03:52:44;;;;;;;15.65;11.23;;;12.20;99.90;;;;;;6167324;23;20024;-92
2023/09/04 03:55:31;;;;;;;16.02;10.80;;;12.30;99.90;;;;;;6167927;23;20035;-91
2023/09/04 03:58:21;;;;;;;17.20;11.73;;;12.30;99.90;;;;;;6188044;23;20025;-91
2023/09/04 04:04:37;;;;;;;16.40;11.63;;;12.10;99.90;;;;;;6189290;23;20100;-91
2023/09/04 04:07:25;;;;;;;18.17;12.75;;;12.10;99.90;;;;;;6167248;23;20021;-90
2023/09/04 04:10:13;;;;;;;19.25;12.45;;;12.00;99.90;;;;;;6168087;23;20029;-91
2023/09/04 04:13:00;;;;;;;19.33;13.00;;;12.00;99.90;;;;;;6169365;23;20068;-91
2023/09/04 04:15:47;;;;;;;20.30;13.60;;;12.00;99.90;;;;;;6167278;23;20025;-91
2023/09/04 04:18:35;;;;;;;23.00;12.82;;;12.10;99.90;;;;;;6169991;23;20025;-93
2023/09/04 04:21:22;;;;;;;24.45;12.38;;;12.10;99.90;;;;;;6210086;23;20025;-92
2023/09/04 04:24:10;;;;;;;19.70;13.73;;;12.10;99.90;;;;;;6168977;23;20040;-92
2023/09/04 04:26:57;;;;;;;17.38;12.20;;;12.10;99.90;;;;;;6209901;23;20099;-92
2023/09/04 04:29:47;;;;;;;21.67;12.65;;;12.10;99.90;;;;;;6174856;23;20037;-92
2023/09/04 04:32:37;;;;;;;19.38;14.35;;;12.00;99.90;;;;;;6170573;23;20035;-94
2023/09/04 04:35:25;;;;;;;21.10;13.43;;;12.00;99.90;;;;;;6172187;23;20052;-93
2023/09/04 04:38:12;;;;;;;23.55;13.88;;;12.00;99.90;;;;;;6173234;23;20080;-91
2023/09/04 04:41:02;;;;;;;23.42;13.27;;;11.90;99.90;;;;;;6192589;23;20041;-93
2023/09/04 04:43:49;;;;;;;24.02;14.57;;;11.90;99.90;;;;;;6209945;23;20033;-92
2023/09/04 04:46:36;;;;;;;23.15;14.65;;;11.80;99.90;;;;;;6169494;23;20021;-93
2023/09/04 04:49:24;;;;;;;21.30;14.23;;;11.80;99.90;;;;;;6169601;23;20048;-92
2023/09/04 04:52:11;;;;;;;22.08;14.02;;;11.80;99.90;;;;;;6169262;23;20339;-93
2023/09/04 04:54:59;;;;;;;20.45;13.73;;;11.90;99.90;;;;;;6168868;23;20025;-90
2023/09/04 04:57:46;;;;;;;18.08;13.43;;;11.80;99.90;;;;;;6168089;23;20040;-90
2023/09/04 05:00:33;;;;;;;20.17;13.48;;;11.90;99.90;;;;;;6168736;23;20020;-92
2023/09/04 05:03:20;;;;;;;23.10;14.60;;;12.00;99.90;;;;;;6169712;23;20399;-91
2023/09/04 05:06:08;;;;;;;21.73;14.15;;;12.00;99.90;;;;;;6168831;23;20313;-92
2023/09/04 05:08:56;;;;;;;21.10;13.07;;;11.90;99.90;;;;;;6170060;23;20021;-89
2023/09/04 05:11:43;;;;;;;22.67;13.70;;;11.90;99.90;;;;;;6168970;23;20428;-91
2023/09/04 05:14:31;;;;;;;22.00;14.65;;;11.90;99.90;;;;;;6166744;23;20029;-91
2023/09/04 05:17:18;;;;;;;22.40;14.00;;;12.00;99.90;;;;;;6168527;23;20025;-91
2023/09/04 05:20:07;;;;;;;24.85;14.38;;;12.10;99.90;;;;;;6189938;23;20340;-91
2023/09/04 05:22:55;;;;;;;24.77;13.93;;;12.10;99.90;;;;;;6169580;23;20028;-91
2023/09/04 05:25:49;;;;;;;24.48;14.68;;;12.10;99.90;;;;;;6169006;23;20021;-91
2023/09/04 05:28:37;;;;;;;26.52;16.73;;;12.20;99.90;;;;;;6167177;23;20087;-92
2023/09/04 05:31:24;;;;;;;25.52;16.20;;;12.30;99.90;;;;;;6188526;23;20494;-91
2023/09/04 05:34:12;;;;;;;24.08;16.00;;;12.50;99.90;;;;;;6168551;23;20029;-91
2023/09/04 05:37:00;;;;;;;26.17;16.80;;;12.60;99.90;;;;;;6148206;23;20024;-92
2023/09/04 05:39:47;;;;;;;25.15;17.38;;;12.70;99.90;;;;;;6188512;23;20048;-95
2023/09/04 05:42:38;;;;;;;25.27;16.67;;;12.80;99.90;;;;;;6172074;23;20029;-90
2023/09/04 05:45:27;;;;;;;24.42;16.52;;;12.90;99.90;;;;;;6182241;23;20023;-91
2023/09/04 05:48:14;;;;;;;27.27;15.98;;;13.00;99.90;;;;;;6182272;23;20803;-91
2023/09/04 05:51:02;;;;;;;23.73;15.23;;;13.10;99.90;;;;;;6169262;23;20327;-92
2023/09/04 05:53:50;;;;;;;22.23;14.43;;;13.10;99.90;;;;;;6168946;23;20367;-91
2023/09/04 05:56:37;;;;;;;26.27;15.82;;;13.20;99.90;;;;;;6169620;23;20040;-93
2023/09/04 05:59:25;;;;;;;23.00;15.05;;;13.30;99.90;;;;;;6211290;23;20021;-94
2023/09/04 06:02:12;;;;;;;20.30;13.02;;;13.40;99.90;;;;;;6170420;23;20036;-92
2023/09/04 06:05:00;;;;;;;23.55;12.85;;;13.50;99.90;;;;;;6169779;23;20444;-92
2023/09/04 06:07:48;;;;;;;16.98;12.10;;;13.40;99.90;;;;;;6168984;23;20025;-91
2023/09/04 06:10:35;;;;;;;21.15;13.70;;;13.40;99.90;;;;;;6168547;23;20391;-92
2023/09/04 06:13:22;;;;;;;21.55;13.38;;;13.30;99.90;;;;;;6168471;23;20040;-93
2023/09/04 06:16:12;;;;;;;23.35;14.25;;;13.30;99.90;;;;;;6169903;23;20040;-92
2023/09/04 06:19:00;;;;;;;19.17;13.48;;;13.30;99.90;;;;;;6190058;23;20036;-91
2023/09/04 06:21:47;;;;;;;19.95;12.95;;;13.40;99.90;;;;;;6189251;23;20031;-94
2023/09/04 06:24:35;;;;;;;22.13;12.95;;;13.60;99.90;;;;;;6188960;23;20087;-91
2023/09/04 06:27:23;;;;;;;16.90;12.20;;;13.70;99.90;;;;;;6168802;23;20052;-92
2023/09/04 06:30:10;;;;;;;20.88;14.65;;;13.80;99.90;;;;;;6209911;23;20372;-91
2023/09/04 06:32:58;;;;;;;17.50;12.85;;;13.90;99.90;;;;;;6189916;23;20100;-92
2023/09/04 06:35:53;;;;;;;15.50;11.75;;;14.10;99.90;;;;;;6189632;23;20029;-93
2023/09/04 06:38:40;;;;;;;14.30;10.85;;;14.20;99.90;;;;;;6168881;23;20132;-92
2023/09/04 06:41:30;;;;;;;16.92;11.63;;;14.30;99.90;;;;;;6209035;23;20021;-92
2023/09/04 06:44:17;;;;;;;14.82;10.00;;;14.40;99.90;;;;;;6168523;23;20025;-91
2023/09/04 06:47:05;;;;;;;15.23;10.98;;;14.60;99.90;;;;;;6167239;23;20031;-92
2023/09/04 06:49:52;;;;;;;11.20;9.82;;;14.60;99.90;;;;;;6188600;23;20029;-90
2023/09/04 06:52:39;;;;;;;11.45;9.50;;;14.70;99.90;;;;;;6166387;23;20039;-92
2023/09/04 06:55:27;;;;;;;12.82;9.65;;;14.80;99.90;;;;;;6167427;23;20076;-92
2023/09/04 06:58:14;;;;;;;11.38;9.15;;;15.00;99.90;;;;;;6167730;23;20040;-90
2023/09/04 07:01:03;;;;;;;10.93;7.60;;;15.20;99.90;;;;;;6187169;23;20100;-91
2023/09/04 07:03:50;;;;;;;10.32;7.43;;;15.40;99.90;;;;;;6169043;23;20096;-91
2023/09/04 07:06:38;;;;;;;10.23;7.18;;;15.50;99.90;;;;;;6170384;23;20017;-90
2023/09/04 07:09:25;;;;;;;13.15;8.13;;;15.70;99.90;;;;;;6166961;23;20029;-91
2023/09/04 07:12:13;;;;;;;9.35;7.18;;;15.80;99.90;;;;;;6188644;23;20100;-91
2023/09/04 07:15:01;;;;;;;11.85;7.22;;;16.00;99.90;;;;;;6169560;23;20029;-91
2023/09/04 07:17:48;;;;;;;10.93;6.95;;;16.10;99.90;;;;;;6167764;23;20153;-93
2023/09/04 07:20:36;;;;;;;6.53;5.22;;;16.40;99.90;;;;;;6169766;23;20025;-90
2023/09/04 07:23:23;;;;;;;9.93;6.68;;;16.50;99.90;;;;;;6171546;23;20024;-91
2023/09/04 07:26:14;;;;;;;8.13;6.28;;;16.80;99.90;;;;;;6176688;23;20021;-91
2023/09/04 07:29:03;;;;;;;7.90;6.43;;;16.90;99.90;;;;;;6196017;23;20122;-89
2023/09/04 07:31:50;;;;;;;8.77;5.90;;;16.90;99.90;;;;;;6200165;23;20029;-90
2023/09/04 07:34:38;;;;;;;7.90;6.25;;;16.80;1.00;;;;;;6197293;23;20427;-90
2023/09/04 07:37:27;;;;;;;7.85;6.07;;;16.70;99.90;;;;;;6194966;23;20091;-92
2023/09/04 07:40:14;;;;;;;8.43;6.15;;;16.70;1.00;;;;;;6192528;23;20017;-92
2023/09/04 07:43:02;;;;;;;10.38;6.10;;;16.90;99.90;;;;;;6169424;23;20025;-92
2023/09/04 07:45:49;;;;;;;5.95;5.13;;;17.10;1.00;;;;;;6168272;23;20021;-90
2023/09/04 07:48:36;;;;;;;9.15;4.82;;;17.40;99.90;;;;;;6188966;23;20379;-90
2023/09/04 07:51:24;;;;;;;7.82;4.90;;;17.50;99.90;;;;;;6165610;23;20021;-92
2023/09/04 07:54:23;;;;;;;8.68;5.55;;;17.80;1.00;;;;;;6170232;23;20051;-90
2023/09/04 07:57:10;;;;;;;7.68;4.50;;;18.10;57.80;;;;;;6190456;23;20060;-91
2023/09/04 07:59:59;;;;;;;4.63;4.22;;;18.40;99.90;;;;;;6168594;23;20036;-90
2023/09/04 08:02:47;;;;;;;6.57;4.65;;;18.50;1.00;;;;;;6170851;23;20032;-92
2023/09/04 08:05:37;;;;;;;5.72;4.40;;;18.50;99.90;;;;;;6193439;23;20369;-89
2023/09/04 08:08:24;;;;;;;5.40;3.97;;;18.70;99.90;;;;;;6194468;23;20048;-91
2023/09/04 08:11:12;;;;;;;7.53;4.32;;;19.20;1.00;;;;;;6170984;23;20025;-92
2023/09/04 08:14:01;;;;;;;4.47;3.63;;;19.80;99.90;;;;;;6169093;23;20431;-91
2023/09/04 08:16:51;;;;;;;3.53;3.22;;;20.60;99.90;;;;;;6197276;23;20026;-91
2023/09/04 08:19:38;;;;;;;5.47;4.03;;;21.30;1.00;;;;;;6197496;23;20064;-90
2023/09/04 08:22:26;;;;;;;3.67;3.35;;;21.60;99.90;;;;;;6189583;23;20021;-90
2023/09/04 08:25:14;;;;;;;3.42;3.08;;;22.00;99.90;;;;;;6166594;23;20320;-90
2023/09/04 08:28:03;;;;;;;4.10;3.40;;;22.70;99.90;;;;;;6168120;23;20167;-90
2023/09/04 08:30:50;;;;;;;4.15;3.22;;;23.30;1.00;;;;;;6166485;23;20025;-91
2023/09/04 08:33:37;;;;;;;7.68;3.35;;;23.30;1.00;;;;;;6188024;23;20032;-91
2023/09/04 08:36:25;;;;;;;7.60;3.38;;;23.70;1.00;;;;;;6167795;23;20033;-91
2023/09/04 08:39:12;;;;;;;5.18;2.92;;;24.20;99.90;;;;;;6188965;23;20029;-90
2023/09/04 08:42:02;;;;;;;3.42;2.70;;;24.60;99.90;;;;;;6166933;23;20320;-90
2023/09/04 08:44:51;;;;;;;4.05;2.83;;;24.50;99.90;;;;;;6166426;23;20048;-89
2023/09/04 08:47:40;;;;;;;4.38;3.20;;;24.60;99.90;;;;;;6187865;23;20060;-90
2023/09/04 08:50:28;;;;;;;3.58;3.03;;;24.80;99.90;;;;;;6165284;23;20100;-90
2023/09/04 08:53:16;;;;;;;2.80;2.60;;;25.00;99.90;;;;;;6164866;23;20070;-91
2023/09/04 08:56:04;;;;;;;4.03;2.47;;;25.00;99.90;;;;;;6189550;23;20029;-91
2023/09/04 08:58:53;;;;;;;4.05;2.65;;;25.80;99.90;;;;;;6168580;23;20094;-90
2023/09/04 09:01:42;;;;;;;2.83;2.50;;;26.30;99.90;;;;;;6167729;23;20025;-91
2023/09/04 09:04:30;;;;;;;3.85;2.50;;;26.80;99.90;;;;;;6190858;23;20025;-88
2023/09/04 09:07:23;;;;;;;2.85;2.10;;;26.80;99.90;;;;;;6189372;23;20071;-88
2023/09/04 09:10:16;;;;;;;3.35;2.60;;;26.70;99.90;;;;;;6190602;23;20021;-91
2023/09/04 09:13:04;;;;;;;7.35;2.92;;;26.70;99.90;;;;;;6174414;23;20059;-91
2023/09/04 09:15:51;;;;;;;3.50;2.38;;;26.30;99.90;;;;;;6195620;23;20029;-92
2023/09/04 09:18:42;;;;;;;7.10;2.60;;;26.60;99.90;;;;;;6175004;23;20064;-92
2023/09/04 09:21:32;;;;;;;4.30;2.70;;;26.60;99.90;;;;;;6192497;23;20124;-93
2023/09/04 09:24:20;;;;;;;2.88;2.58;;;27.40;99.90;;;;;;6199516;23;20027;-91
2023/09/04 09:27:07;;;;;;;3.03;2.20;;;27.20;99.90;;;;;;6176032;23;20044;-91
2023/09/04 09:30:01;;;;;;;2.83;2.63;;;27.30;99.90;;;;;;6199766;23;20108;-91
2023/09/04 09:32:52;;;;;;;3.90;2.53;;;27.20;99.90;;;;;;6192617;23;20025;-89
2023/09/04 09:35:40;;;;;;;3.40;2.80;;;27.10;98.90;;;;;;6198444;23;20029;-89
2023/09/04 09:38:28;;;;;;;6.82;2.80;;;27.40;96.60;;;;;;6198506;23;20471;-90
2023/09/04 09:41:18;;;;;;;3.17;2.72;;;27.00;83.80;;;;;;6178076;23;20029;-90
2023/09/04 09:44:15;;;;;;;3.55;2.63;;;27.50;84.90;;;;;;6197787;23;20025;-92
2023/09/04 09:47:02;;;;;;;2.83;2.20;;;28.00;69.40;;;;;;6192521;23;20116;-93
2023/09/04 09:49:54;;;;;;;2.63;2.40;;;29.00;59.10;;;;;;6192062;23;20045;-92
2023/09/04 09:53:09;;;;;;;5.05;2.65;;;29.20;50.90;;;;;;6167900;23;20036;-91
2023/09/04 09:55:57;;;;;;;3.38;2.38;;;29.40;35.70;;;;;;6191115;23;20033;-91
2023/09/04 09:58:47;;;;;;;2.50;2.20;;;29.30;27.80;;;;;;6166607;23;20040;-92
2023/09/04 10:01:37;;;;;;;2.55;2.20;;;29.40;26.10;;;;;;6194473;23;20434;-89
2023/09/04 10:04:27;;;;;;;2.30;2.10;;;30.00;20.80;;;;;;6190529;23;20021;-91
2023/09/04 10:07:21;;;;;;;3.08;2.28;;;30.70;14.30;;;;;;6188343;23;20021;-91
2023/09/04 10:10:12;;;;;;;2.83;2.15;;;30.70;3.80;;;;;;6189911;23;20025;-89
2023/09/04 10:13:10;;;;;;;2.65;2.15;;;30.20;1.00;;;;;;6189925;23;20040;-92
2023/09/04 10:15:58;;;;;;;3.28;2.13;;;30.10;1.00;;;;;;6168941;23;20025;-91
2023/09/04 10:18:53;;;;;;;3.17;1.90;;;30.50;1.00;;;;;;6173203;23;20029;-92
2023/09/04 10:21:47;;;;;;;2.75;1.65;;;31.30;1.00;;;;;;6173185;23;20029;-92
2023/09/04 10:25:01;;;;;;;6.15;2.33;;;31.00;1.00;;;;;;6188105;23;20025;-91
2023/09/04 10:27:54;;;;;;;3.20;2.28;;;30.90;1.00;;;;;;6195814;23;20138;-90
2023/09/04 10:30:49;;;;;;;2.67;2.30;;;31.30;1.00;;;;;;6172227;23;20032;-93
2023/09/04 10:33:43;;;;;;;2.42;2.05;;;31.40;1.00;;;;;;6174422;23;20261;-92
2023/09/04 10:36:31;;;;;;;3.40;2.10;;;31.70;1.00;;;;;;6188249;23;20029;-90
2023/09/04 10:39:21;;;;;;;2.95;2.30;;;31.40;1.00;;;;;;6197761;23;20051;-90
2023/09/04 10:42:11;;;;;;;2.15;1.95;;;30.50;1.00;;;;;;6183667;23;20029;-91
2023/09/04 10:45:12;;;;;;;2.25;1.92;;;30.50;1.00;;;;;;6195050;23;20032;-91
2023/09/04 10:48:02;;;;;;;2.20;2.00;;;30.90;1.00;;;;;;6186263;23;20021;-92
2023/09/04 10:50:49;;;;;;;3.90;2.42;;;31.50;1.00;;;;;;6192915;23;20029;-93
2023/09/04 10:53:37;;;;;;;2.58;2.10;;;31.80;1.00;;;;;;6193566;23;20013;-93
2023/09/04 10:56:49;;;;;;;2.40;2.20;;;32.60;1.00;;;;;;6189686;23;20029;-91
2023/09/04 10:59:52;;;;;;;2.88;2.47;;;32.10;1.00;;;;;;6171555;23;20029;-92
2023/09/04 11:02:41;;;;;;;3.85;2.20;;;31.80;1.00;;;;;;6192555;23;20021;-91
2023/09/04 11:05:29;;;;;;;3.67;2.03;;;32.00;1.00;;;;;;6167429;23;20032;-92
2023/09/04 11:08:27;;;;;;;3.67;2.28;;;31.30;1.00;;;;;;6189640;23;20021;-90
2023/09/04 11:11:14;;;;;;;2.65;2.15;;;30.70;1.00;;;;;;6166955;23;20025;-88
2023/09/04 11:14:07;;;;;;;4.13;2.30;;;30.30;1.00;;;;;;6192800;23;20021;-92
2023/09/04 11:16:55;;;;;;;2.72;2.00;;;30.90;1.00;;;;;;6189721;23;20039;-91
2023/09/04 11:19:45;;;;;;;6.10;1.90;;;30.50;1.00;;;;;;6174658;23;20029;-91
2023/09/04 11:22:34;;;;;;;5.03;2.20;;;31.10;1.00;;;;;;6191229;23;20060;-92
2023/09/04 11:25:32;;;;;;;;;;;;;;;;;;;;;
2023/09/04 11:28:26;;;;;;;2.78;2.05;;;33.30;1.00;;;;;;6191953;23;20025;-92
2023/09/04 11:31:53;;;;;;;2.30;1.90;;;33.80;1.00;;;;;;6194573;23;20075;-91
2023/09/04 11:35:01;;;;;;;1.83;1.70;;;33.40;1.00;;;;;;6189786;23;20118;-91
2023/09/04 11:37:51;;;;;;;2.20;1.90;;;32.50;1.00;;;;;;6168840;23;20029;-90
2023/09/04 11:40:40;;;;;;;2.25;2.00;;;32.40;1.00;;;;;;6191299;23;20032;-92
2023/09/04 11:43:33;;;;;;;4.05;2.22;;;32.10;1.00;;;;;;6190455;23;20025;-90
2023/09/04 11:46:20;;;;;;;2.42;2.08;;;32.70;1.00;;;;;;6173205;23;20091;-91
2023/09/04 11:50:06;;;;;;;2.10;1.85;;;32.90;1.00;;;;;;6177115;23;20037;-92
2023/09/04 11:52:56;;;;;;;3.47;2.10;;;33.20;1.00;;;;;;6157106;23;20036;-91
2023/09/04 11:56:12;;;;;;;2.50;1.88;;;32.80;1.00;;;;;;6170917;23;20020;-92
2023/09/04 11:59:04;;;;;;;2.58;2.15;;;32.30;1.00;;;;;;6191250;23;20432;-90
2023/09/04 12:01:53;;;;;;;3.17;2.03;;;31.80;1.00;;;;;;6195629;23;20029;-92
2023/09/04 12:04:40;;;;;;;3.03;2.10;;;31.90;1.00;;;;;;6192741;23;20024;-89
2023/09/04 12:07:32;;;;;;;2.28;1.90;;;31.50;1.00;;;;;;6188522;23;20025;-90
2023/09/04 12:10:19;;;;;;;3.72;2.28;;;31.40;1.00;;;;;;6193009;23;20029;-91
2023/09/04 12:13:07;;;;;;;4.72;2.13;;;31.40;1.00;;;;;;6189196;23;20029;-91
2023/09/04 12:16:05;;;;;;;4.15;2.20;;;31.60;1.00;;;;;;6193685;23;20060;-92
2023/09/04 12:18:54;;;;;;;2.65;2.33;;;31.70;1.00;;;;;;6179988;23;20032;-92
2023/09/04 12:21:41;;;;;;;3.17;2.00;;;32.30;1.00;;;;;;6202456;23;20077;-90
2023/09/04 12:24:29;;;;;;;1.80;1.70;;;33.20;1.00;;;;;;6198534;23;20025;-91
2023/09/04 12:27:18;;;;;;;3.80;2.08;;;32.90;1.00;;;;;;6197822;23;20044;-91
2023/09/04 12:30:08;;;;;;;3.50;1.83;;;32.70;1.00;;;;;;6201288;23;20032;-90
2023/09/04 12:32:58;;;;;;;3.08;2.00;;;33.20;1.00;;;;;;6194858;23;20043;-89
2023/09/04 12:35:58;;;;;;;2.97;2.20;;;32.80;1.00;;;;;;6174196;23;20029;-91
2023/09/04 12:38:45;;;;;;;2.83;2.13;;;32.80;1.00;;;;;;6200489;23;20025;-91
2023/09/04 12:41:35;;;;;;;3.22;1.85;;;32.80;1.00;;;;;;6202157;23;20029;-90
2023/09/04 12:44:22;;;;;;;4.05;1.98;;;32.90;1.00;;;;;;6201844;23;20032;-91
2023/09/04 12:47:12;;;;;;;2.70;1.63;;;33.40;1.00;;;;;;6174051;23;20021;-89
2023/09/04 12:50:02;;;;;;;5.32;2.10;;;32.70;1.00;;;;;;6197952;23;20036;-93
2023/09/04 12:52:52;;;;;;;6.25;2.00;;;32.50;1.00;;;;;;6194752;23;20035;-89
2023/09/04 12:55:39;;;;;;;2.38;2.10;;;32.30;1.00;;;;;;6201437;23;20052;-93
2023/09/04 12:58:27;;;;;;;2.00;1.80;;;33.10;1.00;;;;;;6203122;23;20040;-91
2023/09/04 13:01:14;;;;;;;2.60;2.20;;;33.80;1.00;;;;;;6183735;23;20056;-91
2023/09/04 13:04:03;;;;;;;4.38;1.98;;;34.40;1.00;;;;;;6206259;23;20028;-90
2023/09/04 13:06:50;;;;;;;5.43;1.90;;;34.10;1.00;;;;;;6199832;23;20683;-89
2023/09/04 13:09:39;;;;;;;9.50;1.65;;;33.40;1.00;;;;;;6172221;23;20044;-90
2023/09/04 13:12:31;;;;;;;3.92;2.10;;;33.00;1.00;;;;;;6198674;23;20025;-91
2023/09/04 13:15:21;;;;;;;2.33;1.90;;;33.20;1.00;;;;;;6196278;23;20020;-91
2023/09/04 13:18:10;;;;;;;3.15;2.08;;;34.10;1.00;;;;;;6174378;23;20384;-90
2023/09/04 13:21:11;;;;;;;2.20;1.90;;;34.50;1.00;;;;;;6181377;23;20025;-94
2023/09/04 13:24:03;;;;;;;2.65;1.90;;;34.90;1.00;;;;;;6203707;23;20021;-92
2023/09/04 13:26:54;;;;;;;3.63;1.85;;;34.50;1.00;;;;;;6205251;23;20073;-90
2023/09/04 13:29:45;;;;;;;2.42;1.90;;;34.40;1.00;;;;;;6180460;23;20044;-89
2023/09/04 13:32:32;;;;;;;2.20;2.00;;;33.90;1.00;;;;;;6178872;23;20028;-90
2023/09/04 13:35:22;;;;;;;2.78;1.88;;;34.20;1.00;;;;;;6194955;23;20021;-92
2023/09/04 13:38:10;;;;;;;2.25;1.83;;;33.90;1.00;;;;;;6193361;23;20025;-91
2023/09/04 13:40:59;;;;;;;3.42;1.92;;;33.50;1.00;;;;;;6196079;23;20031;-89
2023/09/04 13:43:47;;;;;;;2.90;2.10;;;33.50;1.00;;;;;;6195457;23;20104;-88
2023/09/04 13:46:35;;;;;;;3.10;1.90;;;33.40;1.00;;;;;;6195666;23;20037;-93
2023/09/04 13:49:23;;;;;;;2.70;1.90;;;33.40;1.00;;;;;;6174383;23;20048;-91
2023/09/04 13:52:13;;;;;;;2.88;2.25;;;33.30;1.00;;;;;;6197327;23;20056;-92
2023/09/04 13:55:00;;;;;;;3.05;2.35;;;32.90;1.00;;;;;;6173931;23;20029;-92
2023/09/04 13:57:47;;;;;;;2.67;2.00;;;33.00;1.00;;;;;;6194878;23;20644;-88
2023/09/04 14:00:35;;;;;;;5.63;2.40;;;32.50;1.00;;;;;;6176635;23;20107;-90
2023/09/04 14:03:22;;;;;;;2.08;1.88;;;32.40;1.00;;;;;;6195275;23;20437;-94
2023/09/04 14:06:10;;;;;;;2.50;2.25;;;32.80;1.00;;;;;;6197897;23;20048;-91
2023/09/04 14:08:58;;;;;;;2.58;2.28;;;32.80;1.00;;;;;;6197116;23;20044;-90
2023/09/04 14:11:47;;;;;;;3.10;2.30;;;32.80;1.00;;;;;;6194695;23;20423;-92
2023/09/04 14:14:34;;;;;;;4.00;2.22;;;32.40;1.00;;;;;;6177542;23;20051;-91
2023/09/04 14:17:22;;;;;;;2.35;2.00;;;32.70;1.00;;;;;;6173885;23;20112;-88
2023/09/04 14:20:10;;;;;;;3.80;1.90;;;32.30;1.00;;;;;;6179703;23;20069;-92
2023/09/04 14:23:00;;;;;;;5.60;2.53;;;32.30;1.00;;;;;;6201611;23;20021;-89
2023/09/04 14:25:50;;;;;;;4.10;2.20;;;32.60;1.00;;;;;;6187621;23;20028;-89
2023/09/04 14:28:45;;;;;;;4.43;2.63;;;33.40;1.00;;;;;;6184208;23;20036;-90
2023/09/04 14:31:32;;;;;;;3.75;2.00;;;33.00;1.00;;;;;;6203300;23;20035;-91
2023/09/04 14:34:20;;;;;;;2.67;2.30;;;32.70;1.00;;;;;;6185358;23;20023;-91
2023/09/04 14:37:07;;;;;;;4.25;2.30;;;32.70;1.00;;;;;;6182864;23;20036;-88
2023/09/04 14:40:02;;;;;;;2.95;2.63;;;32.30;1.00;;;;;;6205710;23;20033;-89
2023/09/04 14:42:50;;;;;;;4.00;2.50;;;32.20;1.00;;;;;;6203265;23;20021;-91